MSC Ludovica — HPAF — position and weather

sailwx.info

Track history (hours):
 
Tides and Currents Weather Stations Pressure Air Temp Water Temp Dewpoint Dewpoint Depression Visibility Wind Speed Wind Dir Waves Ship Positions

MSC Ludovica

Last reported at 2017-Jun-14 09:04 UTC. Time now 2017-Jun-25 15:35 UTC.
Position S 24°23' W 046°01'.
Warning: this ship's position is 11 days out of date.

Length 301 m; draft 12.8 m.

Type: Ship (hazmat cat A). MMSI: 351248000.

Date/timePositionNaut miles runAvg speedWind from/ knotsBaromVisibWave heightAir tempDewpointWater temp
2017-Jun-14 09:04S 24°23' W 046°01'221.8
2017-Jun-14 09:00S 24°23' W 046°03'1020.8
2017-Jun-14 08:30S 24°23' W 046°14'1020.6
2017-Jun-14 08:00S 24°15' W 046°21'1019.2
2017-Jun-14 07:31S 24°05' W 046°22'611.2
2017-Jun-14 07:01S 23°60' W 046°20'3 4.9
2017-Jun-14 06:22S 23°57' W 046°18'1 0.1
2017-Jun-13 11:28S 23°56' W 046°19'3 7.5
2017-Jun-13 11:00S 23°59' W 046°17'4 7.0
2017-Jun-13 10:30S 24°01' W 046°21'510.4
2017-Jun-13 10:00S 24°06' W 046°22'3 5.8
2017-Jun-13 09:30S 24°09' W 046°21'2 4.7
2017-Jun-13 09:00S 24°11' W 046°19'1 1.4
2017-Jun-13 08:25S 24°11' W 046°19'0 0.0
2017-Jun-13 07:58S 24°11' W 046°19'0 0.0
2017-Jun-13 07:25S 24°11' W 046°19'0 0.0
2017-Jun-13 06:58S 24°11' W 046°19'0 0.0
2017-Jun-13 06:25S 24°11' W 046°19'0 0.0
2017-Jun-13 05:55S 24°11' W 046°19'0 0.0
2017-Jun-13 05:25S 24°11' W 046°19'0 0.0
2017-Jun-13 04:58S 24°11' W 046°19'0 0.0
2017-Jun-13 04:28S 24°11' W 046°19'0 0.0
2017-Jun-13 03:58S 24°11' W 046°19'0 0.0
2017-Jun-13 03:28S 24°11' W 046°19'0 0.0
2017-Jun-13 02:55S 24°11' W 046°19'0 0.0
2017-Jun-13 02:19S 24°11' W 046°19'0 0.0
2017-Jun-13 01:58S 24°11' W 046°19'0 0.0
2017-Jun-13 01:28S 24°11' W 046°19'0 0.0
2017-Jun-13 00:58S 24°11' W 046°19'0 0.0
2017-Jun-13 00:28S 24°11' W 046°19'0 0.0
2017-Jun-12 23:58S 24°11' W 046°19'0 0.0
2017-Jun-12 23:22S 24°11' W 046°19'0 0.0
2017-Jun-12 22:58S 24°11' W 046°19'0 0.0
2017-Jun-12 22:22S 24°11' W 046°19'0 0.0
2017-Jun-12 21:58S 24°11' W 046°19'0 0.0
2017-Jun-12 21:25S 24°11' W 046°19'0 0.0
2017-Jun-12 20:58S 24°11' W 046°19'0 0.0
2017-Jun-12 20:28S 24°11' W 046°19'0 0.0
2017-Jun-12 19:58S 24°11' W 046°19'0 0.0
2017-Jun-12 19:28S 24°11' W 046°19'0 0.0
2017-Jun-12 18:58S 24°11' W 046°19'0 0.0
2017-Jun-12 18:28S 24°11' W 046°19'0 0.1
2017-Jun-12 17:58S 24°11' W 046°19'0 0.0
2017-Jun-12 17:28S 24°11' W 046°19'0 0.0
2017-Jun-12 16:43S 24°11' W 046°19'0 0.0
2017-Jun-12 16:28S 24°11' W 046°19'0 0.0
2017-Jun-12 15:58S 24°11' W 046°19'0 0.0
2017-Jun-12 15:28S 24°11' W 046°19'0 0.0
2017-Jun-12 14:55S 24°11' W 046°19'0 0.0
2017-Jun-12 14:28S 24°11' W 046°19'0 0.0
2017-Jun-12 13:25S 24°11' W 046°19'0 0.0
2017-Jun-12 12:58S 24°11' W 046°19'0 0.0
2017-Jun-12 12:25S 24°11' W 046°19'0 0.0
2017-Jun-12 11:58S 24°11' W 046°19'0 0.0
2017-Jun-12 11:10S 24°11' W 046°19'0 0.0
2017-Jun-12 10:55S 24°11' W 046°19'0 0.0
2017-Jun-12 10:28S 24°11' W 046°19'0 0.0
2017-Jun-12 09:49S 24°11' W 046°19'0 0.0
2017-Jun-12 09:28S 24°11' W 046°19'0 0.0
2017-Jun-12 08:58S 24°11' W 046°19'0 0.0
2017-Jun-12 08:25S 24°11' W 046°19'0 0.0
2017-Jun-12 07:58S 24°11' W 046°19'0 0.0
2017-Jun-12 07:28S 24°11' W 046°19'0 0.0
2017-Jun-12 06:58S 24°11' W 046°19'0 0.0
2017-Jun-12 06:28S 24°11' W 046°19'0 0.0
2017-Jun-12 05:58S 24°11' W 046°19'0 0.0
2017-Jun-12 05:28S 24°11' W 046°19'0 0.0
2017-Jun-12 04:58S 24°11' W 046°19'0 0.0
2017-Jun-12 04:28S 24°11' W 046°19'0 0.0
2017-Jun-12 03:58S 24°11' W 046°19'0 0.0
2017-Jun-12 03:28S 24°11' W 046°19'0 0.0
2017-Jun-12 02:55S 24°11' W 046°19'0 0.0
2017-Jun-12 02:28S 24°11' W 046°19'0 0.0
2017-Jun-12 01:58S 24°11' W 046°19'0 0.0
2017-Jun-12 01:25S 24°11' W 046°19'0 0.0
2017-Jun-12 00:58S 24°11' W 046°19'0 0.0
2017-Jun-12 00:28S 24°11' W 046°19'0 0.0
2017-Jun-11 23:49S 24°11' W 046°19'0 0.0
2017-Jun-11 23:28S 24°11' W 046°19'0 0.0
2017-Jun-11 22:58S 24°11' W 046°19'0 0.0
2017-Jun-11 22:28S 24°11' W 046°19'0 0.0
2017-Jun-11 21:58S 24°11' W 046°19'0 0.0
2017-Jun-11 21:30S 24°11' W 046°19'0 0.0
2017-Jun-11 21:00S 24°11' W 046°19'0 0.0
2017-Jun-11 20:30S 24°11' W 046°19'0 0.1
2017-Jun-11 20:00S 24°11' W 046°19'2 3.6
2017-Jun-11 19:30S 24°11' W 046°21'5 9.8
2017-Jun-11 19:00S 24°15' W 046°24'815.2
2017-Jun-11 18:30S 24°22' W 046°28'917.7
2017-Jun-11 18:00S 24°30' W 046°32'917.6
2017-Jun-11 17:31S 24°38' W 046°36'1018.7
2017-Jun-11 16:58S 24°47' W 046°40'920.3
2017-Jun-11 16:30S 24°56' W 046°44'612.9
2017-Jun-11 16:00S 25°02' W 046°46'1718.0
2017-Jun-11 15:04S 25°18' W 046°52'217.5
2017-Jun-11 14:58S 25°19' W 046°53'1517.5
2017-Jun-11 14:08S 25°31' W 047°03'12417.8
2017-Jun-11 07:11S 27°21' W 048°05'417.3
2017-Jun-11 06:57S 27°25' W 048°07'817.3
2017-Jun-11 06:30S 27°32' W 048°10'917.5
2017-Jun-11 06:00S 27°40' W 048°15'918.2
2017-Jun-11 05:30S 27°48' W 048°19'  
Track history (hours):
 
Tides and Currents Weather Stations Pressure Air Temp Water Temp Dewpoint Dewpoint Depression Visibility Wind Speed Wind Dir Waves Ship Positions

MSC Ludovica

Last reported at 2017-Jun-14 09:04 UTC. Time now 2017-Jun-25 15:35 UTC.
Position S 24°23' W 046°01'.
Warning: this ship's position is 11 days out of date.

Length 301 m; draft 12.8 m.

Type: Ship (hazmat cat A). MMSI: 351248000.

Date/timePositionNaut miles runAvg speedWind from/ knotsBaromVisibWave heightAir tempDewpointWater temp
2017-Jun-14 09:04S 24°23' W 046°01'221.8
2017-Jun-14 09:00S 24°23' W 046°03'1020.8
2017-Jun-14 08:30S 24°23' W 046°14'1020.6
2017-Jun-14 08:00S 24°15' W 046°21'1019.2
2017-Jun-14 07:31S 24°05' W 046°22'611.2
2017-Jun-14 07:01S 23°60' W 046°20'3 4.9
2017-Jun-14 06:22S 23°57' W 046°18'1 0.1
2017-Jun-13 11:28S 23°56' W 046°19'3 7.5
2017-Jun-13 11:00S 23°59' W 046°17'4 7.0
2017-Jun-13 10:30S 24°01' W 046°21'510.4
2017-Jun-13 10:00S 24°06' W 046°22'3 5.8
2017-Jun-13 09:30S 24°09' W 046°21'2 4.7
2017-Jun-13 09:00S 24°11' W 046°19'1 1.4
2017-Jun-13 08:25S 24°11' W 046°19'0 0.0
2017-Jun-13 07:58S 24°11' W 046°19'0 0.0
2017-Jun-13 07:25S 24°11' W 046°19'0 0.0
2017-Jun-13 06:58S 24°11' W 046°19'0 0.0
2017-Jun-13 06:25S 24°11' W 046°19'0 0.0
2017-Jun-13 05:55S 24°11' W 046°19'0 0.0
2017-Jun-13 05:25S 24°11' W 046°19'0 0.0
2017-Jun-13 04:58S 24°11' W 046°19'0 0.0
2017-Jun-13 04:28S 24°11' W 046°19'0 0.0
2017-Jun-13 03:58S 24°11' W 046°19'0 0.0
2017-Jun-13 03:28S 24°11' W 046°19'0 0.0
2017-Jun-13 02:55S 24°11' W 046°19'0 0.0
2017-Jun-13 02:19S 24°11' W 046°19'0 0.0
2017-Jun-13 01:58S 24°11' W 046°19'0 0.0
2017-Jun-13 01:28S 24°11' W 046°19'0 0.0
2017-Jun-13 00:58S 24°11' W 046°19'0 0.0
2017-Jun-13 00:28S 24°11' W 046°19'0 0.0
2017-Jun-12 23:58S 24°11' W 046°19'0 0.0
2017-Jun-12 23:22S 24°11' W 046°19'0 0.0
2017-Jun-12 22:58S 24°11' W 046°19'0 0.0
2017-Jun-12 22:22S 24°11' W 046°19'0 0.0
2017-Jun-12 21:58S 24°11' W 046°19'0 0.0
2017-Jun-12 21:25S 24°11' W 046°19'0 0.0
2017-Jun-12 20:58S 24°11' W 046°19'0 0.0
2017-Jun-12 20:28S 24°11' W 046°19'0 0.0
2017-Jun-12 19:58S 24°11' W 046°19'0 0.0
2017-Jun-12 19:28S 24°11' W 046°19'0 0.0
2017-Jun-12 18:58S 24°11' W 046°19'0 0.0
2017-Jun-12 18:28S 24°11' W 046°19'0 0.1
2017-Jun-12 17:58S 24°11' W 046°19'0 0.0
2017-Jun-12 17:28S 24°11' W 046°19'0 0.0
2017-Jun-12 16:43S 24°11' W 046°19'0 0.0
2017-Jun-12 16:28S 24°11' W 046°19'0 0.0
2017-Jun-12 15:58S 24°11' W 046°19'0 0.0
2017-Jun-12 15:28S 24°11' W 046°19'0 0.0
2017-Jun-12 14:55S 24°11' W 046°19'0 0.0
2017-Jun-12 14:28S 24°11' W 046°19'0 0.0
2017-Jun-12 13:25S 24°11' W 046°19'0 0.0
2017-Jun-12 12:58S 24°11' W 046°19'0 0.0
2017-Jun-12 12:25S 24°11' W 046°19'0 0.0
2017-Jun-12 11:58S 24°11' W 046°19'0 0.0
2017-Jun-12 11:10S 24°11' W 046°19'0 0.0
2017-Jun-12 10:55S 24°11' W 046°19'0 0.0
2017-Jun-12 10:28S 24°11' W 046°19'0 0.0
2017-Jun-12 09:49S 24°11' W 046°19'0 0.0
2017-Jun-12 09:28S 24°11' W 046°19'0 0.0
2017-Jun-12 08:58S 24°11' W 046°19'0 0.0
2017-Jun-12 08:25S 24°11' W 046°19'0 0.0
2017-Jun-12 07:58S 24°11' W 046°19'0 0.0
2017-Jun-12 07:28S 24°11' W 046°19'0 0.0
2017-Jun-12 06:58S 24°11' W 046°19'0 0.0
2017-Jun-12 06:28S 24°11' W 046°19'0 0.0
2017-Jun-12 05:58S 24°11' W 046°19'0 0.0
2017-Jun-12 05:28S 24°11' W 046°19'0 0.0
2017-Jun-12 04:58S 24°11' W 046°19'0 0.0
2017-Jun-12 04:28S 24°11' W 046°19'0 0.0
2017-Jun-12 03:58S 24°11' W 046°19'0 0.0
2017-Jun-12 03:28S 24°11' W 046°19'0 0.0
2017-Jun-12 02:55S 24°11' W 046°19'0 0.0
2017-Jun-12 02:28S 24°11' W 046°19'0 0.0
2017-Jun-12 01:58S 24°11' W 046°19'0 0.0
2017-Jun-12 01:25S 24°11' W 046°19'0 0.0
2017-Jun-12 00:58S 24°11' W 046°19'0 0.0
2017-Jun-12 00:28S 24°11' W 046°19'0 0.0
2017-Jun-11 23:49S 24°11' W 046°19'0 0.0
2017-Jun-11 23:28S 24°11' W 046°19'0 0.0
2017-Jun-11 22:58S 24°11' W 046°19'0 0.0
2017-Jun-11 22:28S 24°11' W 046°19'0 0.0
2017-Jun-11 21:58S 24°11' W 046°19'0 0.0
2017-Jun-11 21:30S 24°11' W 046°19'0 0.0
2017-Jun-11 21:00S 24°11' W 046°19'0 0.0
2017-Jun-11 20:30S 24°11' W 046°19'0 0.1
2017-Jun-11 20:00S 24°11' W 046°19'2 3.6
2017-Jun-11 19:30S 24°11' W 046°21'5 9.8
2017-Jun-11 19:00S 24°15' W 046°24'815.2
2017-Jun-11 18:30S 24°22' W 046°28'917.7
2017-Jun-11 18:00S 24°30' W 046°32'917.6
2017-Jun-11 17:31S 24°38' W 046°36'1018.7
2017-Jun-11 16:58S 24°47' W 046°40'920.3
2017-Jun-11 16:30S 24°56' W 046°44'612.9
2017-Jun-11 16:00S 25°02' W 046°46'1718.0
2017-Jun-11 15:04S 25°18' W 046°52'217.5
2017-Jun-11 14:58S 25°19' W 046°53'1517.5
2017-Jun-11 14:08S 25°31' W 047°03'12417.8
2017-Jun-11 07:11S 27°21' W 048°05'417.3
2017-Jun-11 06:57S 27°25' W 048°07'817.3
2017-Jun-11 06:30S 27°32' W 048°10'917.5
2017-Jun-11 06:00S 27°40' W 048°15'918.2
2017-Jun-11 05:30S 27°48' W 048°19'  

Dump ship's entire track history